TimeHST,TemperatureF,Dew PointF,Humidity,Sea Level PressureIn,VisibilityMPH,Wind Direction,Wind SpeedMPH,Gust SpeedMPH,PrecipitationIn,Events,Conditions,WindDirDegrees,DateUTC
12:56 AM,64.9,61.9,90,30.03,10.0,NE,5.8,-,N/A,,Partly Cloudy,50,2013-05-18 10:56:00
1:11 AM,64.4,62.6,94,30.07,10.0,NE,4.6,-,N/A,,Mostly Cloudy,40,2013-05-18 11:11:00
1:22 AM,64.4,62.6,94,30.07,10.0,NE,3.5,-,N/A,,Scattered Clouds,40,2013-05-18 11:22:00
1:56 AM,64.9,61.9,90,30.01,10.0,Calm,Calm,-,N/A,,Clear,0,2013-05-18 11:56:00
2:56 AM,65.8,63.9,93,29.99,10.0,NE,3.5,-,N/A,,Mostly Cloudy,50,2013-05-18 12:56:00
3:56 AM,63.9,63.0,97,29.99,10.0,ENE,4.6,-,N/A,,Clear,70,2013-05-18 13:56:00
4:56 AM,63.9,61.9,93,29.99,10.0,ENE,4.6,-,N/A,,Clear,60,2013-05-18 14:56:00
5:56 AM,64.9,63.9,96,30.01,10.0,NE,5.8,-,N/A,,Clear,40,2013-05-18 15:56:00
6:56 AM,68.0,65.8,93,30.03,10.0,NE,3.5,-,N/A,,Clear,40,2013-05-18 16:56:00
7:56 AM,75.9,64.9,69,30.03,10.0,NNW,3.5,-,N/A,,Clear,330,2013-05-18 17:56:00
8:56 AM,75.9,64.9,69,30.04,10.0,WNW,5.8,-,N/A,,Clear,290,2013-05-18 18:56:00
9:56 AM,79.9,65.8,62,30.05,10.0,West,11.5,-,N/A,,Partly Cloudy,280,2013-05-18 19:56:00
10:56 AM,80.6,66.2,61,30.10,10.0,West,9.2,-,N/A,,Scattered Clouds,280,2013-05-18 20:56:00
11:03 AM,80.6,66.2,61,30.10,10.0,West,10.4,-,N/A,,Mostly Cloudy,280,2013-05-18 21:03:00
11:38 AM,80.6,68.0,65,30.10,10.0,NW,8.1,-,N/A,,Scattered Clouds,310,2013-05-18 21:38:00
11:56 AM,79.0,66.9,66,30.03,10.0,West,9.2,-,N/A,,Partly Cloudy,280,2013-05-18 21:56:00
12:56 PM,81.9,68.9,65,30.01,10.0,West,6.9,-,N/A,,Partly Cloudy,260,2013-05-18 22:56:00
1:56 PM,77.0,66.2,69,30.05,10.0,NE,11.5,-,N/A,,Overcast,50,2013-05-18 23:56:00
2:20 PM,78.8,66.2,65,30.05,10.0,North,11.5,17.3,N/A,,Mostly Cloudy,10,2013-05-19 00:20:00
2:56 PM,79.0,65.8,64,29.98,10.0,ENE,16.1,-,N/A,,Mostly Cloudy,60,2013-05-19 00:56:00
3:56 PM,79.9,64.9,60,29.97,10.0,East,11.5,-,N/A,,Partly Cloudy,90,2013-05-19 01:56:00
4:56 PM,75.2,64.4,69,30.02,10.0,ESE,11.5,-,N/A,,Scattered Clouds,120,2013-05-19 02:56:00
5:56 PM,72.9,66.9,82,29.98,10.0,SE,10.4,-,N/A,,Clear,140,2013-05-19 03:56:00
6:56 PM,72.0,65.8,81,30.00,10.0,SSE,6.9,-,N/A,,Scattered Clouds,150,2013-05-19 04:56:00
7:56 PM,69.8,66.2,88,30.07,10.0,ENE,3.5,-,N/A,,Mostly Cloudy,60,2013-05-19 05:56:00
8:27 PM,69.8,66.2,88,30.07,10.0,NNE,4.6,-,N/A,,Scattered Clouds,20,2013-05-19 06:27:00
8:56 PM,68.9,64.9,87,30.01,10.0,ENE,5.8,-,N/A,,Clear,60,2013-05-19 06:56:00
9:56 PM,68.9,64.9,87,30.03,-9999.0,ENE,4.6,-,N/A,,Clear,60,2013-05-19 07:56:00
10:56 PM,66.9,64.9,93,30.03,10.0,NNE,4.6,-,N/A,,Clear,20,2013-05-19 08:56:00
11:45 PM,68.0,66.2,94,30.08,10.0,East,4.6,-,N/A,,Mostly Cloudy,80,2013-05-19 09:45:00
11:56 PM,68.0,65.8,93,30.01,10.0,ENE,5.8,-,N/A,,Overcast,70,2013-05-19 09:56:00